Time;durP1;ratioP1;P1;durP2;ratioP2;P2;SDS_P1;SDS_P2;PMS_P1;PMS_P2;Temp;Humidity;BMP_temperature;BMP_pressure;BME280_temperature;BME280_humidity;BME280_pressure;Samples;Min_cycle;Max_cycle;Signal;HPM_P1;HPM_P2
2023/05/26 00:00:27;;;;;;;;;;;17.70;65.50;;;;;;5081948;28;19908;-80
2023/05/26 00:02:59;;;;;;;;;;;17.70;65.50;;;;;;5063601;28;20021;-82
2023/05/26 00:05:25;;;;;;;;;;;17.80;65.70;;;;;;5064097;28;19909;-81
2023/05/26 00:07:53;;;;;;;;;;;17.70;65.60;;;;;;5076973;28;19928;-81
2023/05/26 00:10:18;;;;;;;;;;;17.70;65.60;;;;;;5043366;28;19909;-81
2023/05/26 00:12:44;;;;;;;;;;;17.70;65.70;;;;;;5043118;28;19935;-81
2023/05/26 00:15:10;;;;;;;;;;;17.60;65.60;;;;;;5060300;28;19909;-81
2023/05/26 00:17:36;;;;;;;;;;;17.60;65.60;;;;;;5043193;28;20335;-81
2023/05/26 00:20:01;;;;;;;;;;;17.70;65.70;;;;;;5043032;28;19909;-81
2023/05/26 00:22:27;;;;;;;;;;;17.60;65.60;;;;;;5042541;28;19970;-81
2023/05/26 00:24:52;;;;;;;;;;;17.60;65.70;;;;;;5043191;28;19912;-81
2023/05/26 00:27:18;;;;;;;;;;;17.60;65.70;;;;;;5076908;28;19909;-81
2023/05/26 00:29:50;;;;;;;;;;;17.60;65.70;;;;;;5060789;28;20535;-81
2023/05/26 00:32:17;;;;;;;;;;;17.60;65.70;;;;;;5060495;28;20007;-81
2023/05/26 00:34:42;;;;;;;;;;;17.60;65.70;;;;;;5042811;28;20011;-81
2023/05/26 00:37:08;;;;;;;;;;;17.60;65.70;;;;;;5060413;28;19908;-81
2023/05/26 00:39:35;;;;;;;;;;;17.60;65.80;;;;;;5042995;28;20402;-80
2023/05/26 00:42:01;;;;;;;;;;;17.60;65.80;;;;;;5042295;28;19998;-81
2023/05/26 00:44:27;;;;;;;;;;;17.50;65.80;;;;;;5042941;28;20009;-81
2023/05/26 00:46:52;;;;;;;;;;;17.50;65.80;;;;;;5059885;28;19944;-81
2023/05/26 00:49:18;;;;;;;;;;;17.50;65.80;;;;;;5060384;28;19916;-81
2023/05/26 00:51:44;;;;;;;;;;;17.50;65.80;;;;;;5043167;28;20129;-81
2023/05/26 00:54:10;;;;;;;;;;;17.50;65.80;;;;;;5076466;28;19917;-81
2023/05/26 00:56:35;;;;;;;;;;;17.50;65.80;;;;;;5059036;28;20201;-81
2023/05/26 00:59:04;;;;;;;;;;;17.50;65.80;;;;;;5041574;28;19931;-81
2023/05/26 01:01:30;;;;;;;;;;;17.50;65.80;;;;;;5058281;28;20409;-81
2023/05/26 01:03:56;;;;;;;;;;;17.50;65.90;;;;;;5058712;28;19909;-81
2023/05/26 01:06:22;;;;;;;;;;;17.40;65.80;;;;;;5059047;28;19915;-81
2023/05/26 01:08:48;;;;;;;;;;;17.40;65.80;;;;;;5056110;28;19917;-81
2023/05/26 01:11:20;;;;;;;;;;;17.40;65.80;;;;;;5061473;28;19966;-81
2023/05/26 01:13:47;;;;;;;;;;;17.40;65.70;;;;;;5078161;28;20432;-80
2023/05/26 01:16:15;;;;;;;;;;;17.40;65.70;;;;;;5061529;28;19915;-81
2023/05/26 01:18:54;;;;;;;;;;;17.40;65.70;;;;;;5061735;28;19908;-81
2023/05/26 01:21:21;;;;;;;;;;;17.30;65.70;;;;;;5062039;28;20433;-81
2023/05/26 01:24:06;;;;;;;;;;;17.30;65.60;;;;;;5062151;28;19916;-81
2023/05/26 01:26:34;;;;;;;;;;;17.30;65.60;;;;;;5080064;28;19908;-81
2023/05/26 01:29:03;;;;;;;;;;;17.30;65.60;;;;;;5078312;28;19916;-81
2023/05/26 01:31:29;;;;;;;;;;;17.30;65.70;;;;;;5062424;28;19909;-81
2023/05/26 01:33:54;;;;;;;;;;;17.30;65.70;;;;;;5061787;28;19916;-81
2023/05/26 01:36:20;;;;;;;;;;;17.30;65.70;;;;;;5061028;28;20282;-80
2023/05/26 01:38:45;;;;;;;;;;;17.20;65.60;;;;;;5061434;28;19914;-80
2023/05/26 01:41:16;;;;;;;;;;;17.20;65.60;;;;;;5078882;28;19908;-81
2023/05/26 01:43:45;;;;;;;;;;;17.20;65.60;;;;;;5077601;28;19971;-81
2023/05/26 01:46:18;;;;;;;;;;;17.20;65.60;;;;;;5060877;28;19909;-81
2023/05/26 01:48:45;;;;;;;;;;;17.20;65.60;;;;;;5060927;28;19944;-80
2023/05/26 01:51:12;;;;;;;;;;;17.20;65.70;;;;;;5061066;28;19909;-81
2023/05/26 01:53:39;;;;;;;;;;;17.10;65.70;;;;;;5060314;28;19919;-80
2023/05/26 01:56:07;;;;;;;;;;;17.20;65.70;;;;;;5060399;28;19938;-81
2023/05/26 01:58:33;;;;;;;;;;;17.20;65.70;;;;;;5061358;28;19959;-80
2023/05/26 02:00:58;;;;;;;;;;;17.10;66.30;;;;;;5061930;28;19916;-81
2023/05/26 02:03:24;;;;;;;;;;;17.10;65.70;;;;;;5061181;28;19931;-80
2023/05/26 02:05:50;;;;;;;;;;;17.10;65.70;;;;;;5061981;28;19909;-81
2023/05/26 02:08:17;;;;;;;;;;;17.10;65.70;;;;;;5057375;28;19939;-81
2023/05/26 02:10:42;;;;;;;;;;;17.10;65.70;;;;;;5061821;28;20262;-81
2023/05/26 02:13:07;;;;;;;;;;;17.10;65.80;;;;;;5060777;28;20018;-81
2023/05/26 02:15:33;;;;;;;;;;;17.10;65.70;;;;;;5078554;28;19962;-81
2023/05/26 02:18:02;;;;;;;;;;;17.10;65.80;;;;;;5078314;28;19970;-80
2023/05/26 02:20:28;;;;;;;;;;;17.00;65.70;;;;;;5061765;28;19916;-81
2023/05/26 02:22:53;;;;;;;;;;;17.00;65.80;;;;;;5079312;28;19912;-80
2023/05/26 02:25:19;;;;;;;;;;;17.00;65.80;;;;;;5078724;28;19908;-81
2023/05/26 02:27:45;;;;;;;;;;;17.00;65.90;;;;;;5061228;28;19914;-81
2023/05/26 02:30:11;;;;;;;;;;;17.00;65.80;;;;;;5061509;28;19950;-80
2023/05/26 02:32:36;;;;;;;;;;;17.00;65.90;;;;;;5061414;28;19909;-81
2023/05/26 02:35:05;;;;;;;;;;;17.00;65.90;;;;;;5060851;28;19919;-80
2023/05/26 02:37:31;;;;;;;;;;;17.00;66.00;;;;;;5078371;28;19936;-81
2023/05/26 02:39:57;;;;;;;;;;;17.00;66.00;;;;;;5078931;28;19919;-81
2023/05/26 02:42:22;;;;;;;;;;;16.90;65.90;;;;;;5078603;28;19909;-81
2023/05/26 02:44:48;;;;;;;;;;;16.90;65.90;;;;;;5060707;28;19915;-81
2023/05/26 02:47:19;;;;;;;;;;;16.90;66.00;;;;;;5078446;28;20424;-81
2023/05/26 02:49:44;;;;;;;;;;;16.90;66.00;;;;;;5064516;28;19974;-81
2023/05/26 02:52:10;;;;;;;;;;;16.90;66.00;;;;;;5064615;28;19909;-80
2023/05/26 02:54:35;;;;;;;;;;;16.90;66.10;;;;;;5065355;28;19912;-81
2023/05/26 02:57:02;;;;;;;;;;;16.90;66.10;;;;;;5081272;28;20275;-81
2023/05/26 02:59:28;;;;;;;;;;;16.90;66.20;;;;;;5064770;28;19920;-81
2023/05/26 03:01:53;;;;;;;;;;;16.90;66.20;;;;;;5081057;28;19909;-81
2023/05/26 03:04:19;;;;;;;;;;;16.90;66.20;;;;;;5065273;28;19919;-81
2023/05/26 03:06:46;;;;;;;;;;;16.80;66.10;;;;;;5064045;28;20186;-80
2023/05/26 03:09:11;;;;;;;;;;;16.80;66.10;;;;;;5081959;28;19916;-80
2023/05/26 03:11:36;;;;;;;;;;;16.80;66.00;;;;;;5064105;28;19916;-80
2023/05/26 03:14:02;;;;;;;;;;;16.80;66.10;;;;;;5064785;28;19919;-81
2023/05/26 03:16:33;;;;;;;;;;;16.80;66.10;;;;;;5064178;28;19908;-81
2023/05/26 03:18:59;;;;;;;;;;;16.80;66.10;;;;;;5064947;28;19909;-81
2023/05/26 03:21:24;;;;;;;;;;;16.80;66.10;;;;;;5080960;28;20239;-81
2023/05/26 03:23:50;;;;;;;;;;;16.80;66.10;;;;;;5063874;28;19908;-80
2023/05/26 03:26:21;;;;;;;;;;;16.80;66.10;;;;;;5064630;28;19944;-80
2023/05/26 03:28:47;;;;;;;;;;;16.80;66.10;;;;;;5082145;28;19919;-80
2023/05/26 03:31:12;;;;;;;;;;;16.80;66.10;;;;;;5064068;28;19908;-80
2023/05/26 03:33:38;;;;;;;;;;;16.80;66.10;;;;;;5080782;28;20031;-80
2023/05/26 03:36:08;;;;;;;;;;;16.80;66.00;;;;;;5064100;28;19909;-80
2023/05/26 03:38:34;;;;;;;;;;;16.70;66.00;;;;;;5064269;28;20003;-79
2023/05/26 03:40:59;;;;;;;;;;;16.70;66.00;;;;;;5064608;28;19939;-79
2023/05/26 03:43:26;;;;;;;;;;;16.70;65.90;;;;;;5064368;28;20007;-79
2023/05/26 03:46:03;;;;;;;;;;;16.70;65.90;;;;;;5080429;28;19930;-80
2023/05/26 03:48:29;;;;;;;;;;;16.70;65.90;;;;;;5063443;28;20347;-80
2023/05/26 03:50:54;;;;;;;;;;;16.70;65.80;;;;;;5080085;28;19917;-80
2023/05/26 03:53:20;;;;;;;;;;;16.70;65.80;;;;;;5062507;28;20049;-80
2023/05/26 03:55:46;;;;;;;;;;;16.70;65.80;;;;;;5062921;28;19936;-80
2023/05/26 03:58:12;;;;;;;;;;;16.70;65.70;;;;;;5062107;28;19912;-80
2023/05/26 04:00:38;;;;;;;;;;;16.60;65.60;;;;;;5061809;28;19916;-80
2023/05/26 04:03:03;;;;;;;;;;;16.70;65.60;;;;;;5078830;28;19908;-80
2023/05/26 04:05:29;;;;;;;;;;;16.60;65.50;;;;;;5078252;28;19919;-80
2023/05/26 04:07:54;;;;;;;;;;;16.60;65.40;;;;;;5078870;28;20320;-80
2023/05/26 04:10:20;;;;;;;;;;;16.60;65.40;;;;;;5078891;28;19916;-80
2023/05/26 04:12:45;;;;;;;;;;;16.60;65.30;;;;;;5060737;28;19994;-80
2023/05/26 04:15:11;;;;;;;;;;;16.60;65.30;;;;;;5061156;28;19909;-80
2023/05/26 04:17:48;;;;;;;;;;;16.60;65.20;;;;;;5078088;28;20150;-79
2023/05/26 04:20:13;;;;;;;;;;;16.60;65.20;;;;;;5060816;28;20015;-80
2023/05/26 04:22:39;;;;;;;;;;;16.60;65.20;;;;;;5078970;28;19936;-80
2023/05/26 04:25:07;;;;;;;;;;;16.60;65.10;;;;;;5077528;28;19912;-80
2023/05/26 04:27:35;;;;;;;;;;;16.50;65.00;;;;;;5060113;28;19939;-80
2023/05/26 04:30:02;;;;;;;;;;;16.50;65.00;;;;;;5062093;28;19909;-80
2023/05/26 04:32:28;;;;;;;;;;;16.50;64.90;;;;;;5062649;28;20423;-81
2023/05/26 04:34:53;;;;;;;;;;;16.50;64.90;;;;;;5062438;28;19971;-81
2023/05/26 04:37:19;;;;;;;;;;;16.50;64.90;;;;;;5080001;28;20003;-80
2023/05/26 04:39:44;;;;;;;;;;;16.50;64.90;;;;;;5080290;28;19912;-80
2023/05/26 04:42:10;;;;;;;;;;;16.50;64.80;;;;;;5077706;28;19994;-80
2023/05/26 04:44:37;;;;;;;;;;;16.50;64.80;;;;;;5078353;28;19912;-80
2023/05/26 04:47:03;;;;;;;;;;;16.50;64.70;;;;;;5060393;28;19909;-80
2023/05/26 04:49:29;;;;;;;;;;;16.50;64.70;;;;;;5060576;28;20214;-80
2023/05/26 04:51:55;;;;;;;;;;;16.50;64.80;;;;;;5060904;28;20167;-80
2023/05/26 04:54:21;;;;;;;;;;;16.50;64.80;;;;;;5059338;28;19913;-80
2023/05/26 04:56:47;;;;;;;;;;;16.50;64.70;;;;;;5058831;28;19908;-80
2023/05/26 04:59:12;;;;;;;;;;;16.50;64.70;;;;;;5058474;28;19919;-80
2023/05/26 05:01:38;;;;;;;;;;;16.50;64.70;;;;;;5057625;28;19939;-81
2023/05/26 05:04:04;;;;;;;;;;;16.40;64.70;;;;;;5070095;28;19908;-81
2023/05/26 05:06:29;;;;;;;;;;;16.50;65.00;;;;;;5054090;28;19940;-81
2023/05/26 05:08:55;;;;;;;;;;;16.50;65.20;;;;;;5049847;28;20344;-81
2023/05/26 05:11:20;;;;;;;;;;;16.50;65.30;;;;;;5031520;28;19916;-81
2023/05/26 05:13:46;;;;;;;;;;;16.50;65.50;;;;;;5031623;28;20011;-80
2023/05/26 05:16:11;;;;;;;;;;;16.40;65.60;;;;;;5050474;28;19952;-80
2023/05/26 05:18:37;;;;;;;;;;;16.50;65.70;;;;;;5051427;28;20119;-80
2023/05/26 05:21:03;;;;;;;;;;;16.50;65.60;;;;;;5050476;28;19916;-81
2023/05/26 05:23:34;;;;;;;;;;;16.40;65.70;;;;;;5031107;28;20146;-81
2023/05/26 05:25:59;;;;;;;;;;;16.50;65.70;;;;;;5032046;28;19967;-81
2023/05/26 05:28:25;;;;;;;;;;;16.50;65.70;;;;;;5049552;28;19912;-81
2023/05/26 05:30:51;;;;;;;;;;;16.50;65.70;;;;;;5031265;28;20016;-81
2023/05/26 05:33:16;;;;;;;;;;;16.50;65.60;;;;;;5048543;28;19956;-81
2023/05/26 05:35:42;;;;;;;;;;;16.50;65.60;;;;;;5046698;28;19909;-81
2023/05/26 05:38:07;;;;;;;;;;;16.50;65.80;;;;;;5047522;28;19996;-81
2023/05/26 05:40:33;;;;;;;;;;;16.50;65.80;;;;;;5028888;28;19971;-81
2023/05/26 05:43:00;;;;;;;;;;;16.50;65.90;;;;;;5026249;28;19939;-81
2023/05/26 05:45:26;;;;;;;;;;;16.50;65.90;;;;;;5043273;28;19971;-81
2023/05/26 05:47:53;;;;;;;;;;;16.50;65.90;;;;;;5026989;28;19919;-81
2023/05/26 05:50:19;;;;;;;;;;;16.50;65.90;;;;;;5028976;28;19913;-81
2023/05/26 05:52:44;;;;;;;;;;;16.50;66.00;;;;;;5027775;28;19943;-80
2023/05/26 05:55:10;;;;;;;;;;;16.50;65.90;;;;;;5028036;28;19948;-81
2023/05/26 05:57:35;;;;;;;;;;;16.50;65.80;;;;;;5043686;28;20441;-81
2023/05/26 06:00:02;;;;;;;;;;;16.50;65.80;;;;;;5027273;28;20018;-81
2023/05/26 06:02:28;;;;;;;;;;;16.50;65.70;;;;;;5026717;28;19908;-81
2023/05/26 06:04:53;;;;;;;;;;;16.50;65.80;;;;;;5046695;28;19963;-80
2023/05/26 06:07:19;;;;;;;;;;;16.50;65.70;;;;;;5027792;28;20167;-80
2023/05/26 06:09:44;;;;;;;;;;;16.50;65.70;;;;;;5038971;28;19920;-81
2023/05/26 06:12:10;;;;;;;;;;;16.50;65.60;;;;;;5047130;28;19990;-82
2023/05/26 06:14:35;;;;;;;;;;;16.60;65.50;;;;;;5064379;28;20011;-81
2023/05/26 06:17:01;;;;;;;;;;;16.50;65.30;;;;;;5063446;28;19913;-80
2023/05/26 06:19:27;;;;;;;;;;;16.60;65.30;;;;;;5063769;28;19908;-81
2023/05/26 06:21:52;;;;;;;;;;;16.60;65.20;;;;;;5049344;28;20111;-81
2023/05/26 06:24:18;;;;;;;;;;;16.60;65.10;;;;;;5052461;28;19908;-80
2023/05/26 06:26:43;;;;;;;;;;;16.60;65.00;;;;;;5068346;28;19918;-80
2023/05/26 06:29:09;;;;;;;;;;;16.60;64.90;;;;;;5049912;28;20308;-81
2023/05/26 06:31:34;;;;;;;;;;;16.60;64.70;;;;;;5066740;28;20218;-81
2023/05/26 06:34:00;;;;;;;;;;;16.60;64.60;;;;;;5053722;28;19917;-81
2023/05/26 06:36:25;;;;;;;;;;;16.60;64.60;;;;;;5070248;28;20171;-81
2023/05/26 06:38:51;;;;;;;;;;;16.60;64.50;;;;;;5053530;28;19916;-81
2023/05/26 06:41:16;;;;;;;;;;;16.60;64.40;;;;;;5053224;28;19908;-80
2023/05/26 06:43:42;;;;;;;;;;;16.60;64.30;;;;;;5071259;28;19936;-81
2023/05/26 06:46:07;;;;;;;;;;;16.60;64.20;;;;;;5052820;28;20003;-81
2023/05/26 06:48:33;;;;;;;;;;;16.60;64.10;;;;;;5051357;28;19908;-79
2023/05/26 06:50:58;;;;;;;;;;;16.70;64.20;;;;;;5067605;28;20028;-80
2023/05/26 06:53:24;;;;;;;;;;;16.70;64.10;;;;;;5050391;28;19916;-80
2023/05/26 06:55:49;;;;;;;;;;;16.70;64.10;;;;;;5070247;28;20299;-81
2023/05/26 06:58:15;;;;;;;;;;;16.70;63.90;;;;;;5052259;28;20211;-81
2023/05/26 07:00:55;;;;;;;;;;;16.70;63.90;;;;;;5050720;28;19909;-81
2023/05/26 07:03:20;;;;;;;;;;;16.70;63.80;;;;;;5051189;28;20426;-81
2023/05/26 07:05:46;;;;;;;;;;;16.70;63.60;;;;;;5053224;28;20177;-80
2023/05/26 07:08:12;;;;;;;;;;;16.70;63.60;;;;;;5054053;28;20007;-81
2023/05/26 07:10:37;;;;;;;;;;;16.70;63.50;;;;;;5051334;28;20015;-81
2023/05/26 07:13:03;;;;;;;;;;;16.70;63.50;;;;;;5052697;28;20294;-80
2023/05/26 07:15:30;;;;;;;;;;;16.70;63.30;;;;;;5051780;28;19920;-81
2023/05/26 07:17:56;;;;;;;;;;;16.80;63.20;;;;;;5052286;28;20275;-80
2023/05/26 07:20:21;;;;;;;;;;;16.80;63.00;;;;;;5068199;28;19969;-81
2023/05/26 07:22:47;;;;;;;;;;;16.90;62.90;;;;;;5048184;28;20127;-80
2023/05/26 07:25:12;;;;;;;;;;;16.90;62.70;;;;;;5066366;28;19973;-80
2023/05/26 07:27:38;;;;;;;;;;;16.90;62.50;;;;;;5048662;28;19920;-80
2023/05/26 07:30:04;;;;;;;;;;;17.00;62.40;;;;;;5064012;28;20073;-80
2023/05/26 07:32:29;;;;;;;;;;;17.10;62.10;;;;;;5076491;28;19912;-81
2023/05/26 07:34:55;;;;;;;;;;;17.20;61.50;;;;;;5067061;28;19916;-79
2023/05/26 07:37:21;;;;;;;;;;;17.30;61.70;;;;;;5068738;28;19909;-80
2023/05/26 07:39:46;;;;;;;;;;;17.40;60.50;;;;;;5052187;28;19920;-81
2023/05/26 07:42:12;;;;;;;;;;;17.60;60.00;;;;;;5049675;28;19913;-80
2023/05/26 07:44:37;;;;;;;;;;;17.80;59.50;;;;;;5051384;28;20005;-81
2023/05/26 07:47:06;;;;;;;;;;;18.00;59.40;;;;;;5053143;28;19912;-81
2023/05/26 07:49:31;;;;;;;;;;;18.40;58.60;;;;;;5052123;28;19986;-81
2023/05/26 07:51:57;;;;;;;;;;;18.60;57.80;;;;;;5051050;28;20192;-81
2023/05/26 07:54:22;;;;;;;;;;;18.80;57.40;;;;;;5051152;28;19920;-81
2023/05/26 07:56:49;;;;;;;;;;;19.00;57.00;;;;;;5069153;28;20287;-81
2023/05/26 07:59:15;;;;;;;;;;;19.20;56.60;;;;;;5069577;28;19919;-81
2023/05/26 08:01:41;;;;;;;;;;;19.70;56.10;;;;;;5048647;28;20149;-81
2023/05/26 08:04:06;;;;;;;;;;;20.40;55.20;;;;;;5031294;28;19909;-81
2023/05/26 08:06:32;;;;;;;;;;;21.00;54.10;;;;;;5031476;28;19951;-81
2023/05/26 08:08:58;;;;;;;;;;;21.60;53.20;;;;;;5046840;28;19924;-81
2023/05/26 08:11:23;;;;;;;;;;;22.00;52.40;;;;;;5028547;28;19936;-80
2023/05/26 08:13:49;;;;;;;;;;;22.40;51.60;;;;;;5029027;28;19970;-81
2023/05/26 08:16:15;;;;;;;;;;;22.80;51.00;;;;;;5046261;28;19917;-81
2023/05/26 08:18:41;;;;;;;;;;;23.10;50.60;;;;;;5046520;28;19936;-81
2023/05/26 08:21:07;;;;;;;;;;;23.30;50.20;;;;;;5029039;28;19912;-82
2023/05/26 08:23:33;;;;;;;;;;;23.40;49.90;;;;;;5027509;28;19908;-81
2023/05/26 08:25:58;;;;;;;;;;;23.30;49.60;;;;;;5045127;28;20034;-81
2023/05/26 08:28:24;;;;;;;;;;;23.00;49.80;;;;;;5030665;28;20364;-79
2023/05/26 08:30:50;;;;;;;;;;;22.70;49.90;;;;;;5030582;28;20358;-78
2023/05/26 08:33:18;;;;;;;;;;;22.90;50.20;;;;;;5029743;28;19919;-78
2023/05/26 08:35:43;;;;;;;;;;;22.70;50.00;;;;;;5047239;28;19909;-79
2023/05/26 08:38:09;;;;;;;;;;;22.60;50.10;;;;;;5031322;28;20190;-78
2023/05/26 08:40:34;;;;;;;;;;;22.70;50.20;;;;;;5030270;28;19976;-78
2023/05/26 08:43:04;;;;;;;;;;;22.90;50.00;;;;;;5032670;28;19913;-79
2023/05/26 08:45:30;;;;;;;;;;;23.10;49.80;;;;;;5048510;28;19952;-79
2023/05/26 08:47:56;;;;;;;;;;;23.00;49.70;;;;;;5029877;28;20248;-78
2023/05/26 08:50:22;;;;;;;;;;;22.90;49.80;;;;;;5030590;28;19908;-79
2023/05/26 08:52:48;;;;;;;;;;;23.00;49.60;;;;;;5031243;28;19972;-78
2023/05/26 08:55:14;;;;;;;;;;;23.40;49.80;;;;;;5049227;28;19919;-79
2023/05/26 08:57:41;;;;;;;;;;;23.80;49.20;;;;;;5047059;28;19939;-79
2023/05/26 09:00:07;;;;;;;;;;;24.30;48.80;;;;;;5028650;28;20072;-79
2023/05/26 09:02:33;;;;;;;;;;;24.80;48.30;;;;;;5027785;28;19916;-80
2023/05/26 09:04:59;;;;;;;;;;;24.80;47.90;;;;;;5043266;28;19908;-80
2023/05/26 09:07:24;;;;;;;;;;;24.60;47.80;;;;;;5026008;28;20308;-79
2023/05/26 09:09:50;;;;;;;;;;;24.30;48.10;;;;;;5014259;28;20416;-80
2023/05/26 09:12:16;;;;;;;;;;;24.00;48.40;;;;;;5022483;28;19913;-80
2023/05/26 09:14:42;;;;;;;;;;;24.20;48.40;;;;;;5005721;28;20161;-80
2023/05/26 09:17:10;;;;;;;;;;;24.20;48.20;;;;;;5022822;28;19913;-80
2023/05/26 09:19:36;;;;;;;;;;;24.30;48.30;;;;;;5024797;28;19913;-80
2023/05/26 09:22:09;;;;;;;;;;;24.60;48.10;;;;;;5007592;28;19920;-80
2023/05/26 09:24:44;;;;;;;;;;;24.80;48.00;;;;;;5023050;28;20309;-80
2023/05/26 09:27:19;;;;;;;;;;;24.80;48.00;;;;;;5025472;28;19940;-80
2023/05/26 09:29:49;;;;;;;;;;;24.80;47.80;;;;;;5023418;28;19924;-79
2023/05/26 09:32:15;;;;;;;;;;;24.70;48.00;;;;;;5022469;28;20158;-80
2023/05/26 09:34:41;;;;;;;;;;;24.60;48.00;;;;;;5006274;28;19918;-80
2023/05/26 09:37:08;;;;;;;;;;;24.50;48.10;;;;;;5008713;28;19960;-80
2023/05/26 09:39:34;;;;;;;;;;;24.30;48.20;;;;;;5024310;28;20029;-80
2023/05/26 09:42:04;;;;;;;;;;;24.10;48.40;;;;;;5008218;28;19910;-80
2023/05/26 09:44:31;;;;;;;;;;;24.00;48.60;;;;;;5022466;28;20154;-80
2023/05/26 09:46:56;;;;;;;;;;;23.80;48.70;;;;;;5020413;28;20115;-80
2023/05/26 09:49:22;;;;;;;;;;;23.60;49.00;;;;;;5021596;28;19940;-80
2023/05/26 09:51:50;;;;;;;;;;;23.50;49.10;;;;;;5023064;28;20234;-80
2023/05/26 09:54:16;;;;;;;;;;;23.40;49.20;;;;;;5024445;28;20258;-80
2023/05/26 09:56:50;;;;;;;;;;;23.40;49.70;;;;;;5024980;28;19909;-80
2023/05/26 09:59:15;;;;;;;;;;;23.30;49.70;;;;;;5007931;28;19917;-80
2023/05/26 10:01:42;;;;;;;;;;;23.30;49.70;;;;;;5026560;28;19989;-80
2023/05/26 10:04:08;;;;;;;;;;;23.20;49.70;;;;;;5028121;28;19944;-80
2023/05/26 10:06:37;;;;;;;;;;;23.20;49.80;;;;;;5029090;28;19921;-80
2023/05/26 10:09:04;;;;;;;;;;;23.10;49.90;;;;;;5010172;28;19987;-80
2023/05/26 10:11:31;;;;;;;;;;;23.10;50.10;;;;;;5028109;28;19920;-80
2023/05/26 10:13:57;;;;;;;;;;;23.00;50.10;;;;;;5009620;28;20048;-80
2023/05/26 10:16:23;;;;;;;;;;;23.00;50.30;;;;;;5010784;28;19936;-80
2023/05/26 10:18:49;;;;;;;;;;;22.90;50.30;;;;;;5009449;28;20129;-81
2023/05/26 10:21:16;;;;;;;;;;;22.90;50.40;;;;;;5025999;28;20010;-80
2023/05/26 10:23:44;;;;;;;;;;;22.90;50.60;;;;;;5010847;28;20157;-80
2023/05/26 10:26:16;;;;;;;;;;;22.80;50.60;;;;;;5008798;28;19916;-80
2023/05/26 10:29:03;;;;;;;;;;;22.70;50.70;;;;;;5027026;28;20340;-81
2023/05/26 10:31:29;;;;;;;;;;;22.70;50.90;;;;;;5026636;28;20234;-79
2023/05/26 10:33:56;;;;;;;;;;;22.60;51.00;;;;;;5009028;28;20492;-79
2023/05/26 10:36:21;;;;;;;;;;;22.60;51.10;;;;;;5010514;28;20004;-79
2023/05/26 10:38:48;;;;;;;;;;;22.50;51.10;;;;;;5027526;28;20178;-79
2023/05/26 10:41:31;;;;;;;;;;;22.50;51.30;;;;;;5010357;28;19909;-79
2023/05/26 10:44:00;;;;;;;;;;;22.50;51.40;;;;;;5026752;28;20173;-79
2023/05/26 10:46:39;;;;;;;;;;;22.40;51.50;;;;;;5011329;28;19910;-79
2023/05/26 10:49:17;;;;;;;;;;;22.40;51.60;;;;;;5023227;28;19932;-81
2023/05/26 10:51:48;;;;;;;;;;;22.40;51.70;;;;;;5005374;28;19949;-80
2023/05/26 10:54:15;;;;;;;;;;;22.30;51.70;;;;;;5040117;28;19994;-80
2023/05/26 10:56:42;;;;;;;;;;;22.30;51.90;;;;;;5042248;28;20149;-80
2023/05/26 10:59:08;;;;;;;;;;;22.20;51.90;;;;;;5027303;28;20465;-80
2023/05/26 11:01:33;;;;;;;;;;;22.20;52.00;;;;;;5024586;28;19916;-80
2023/05/26 11:04:05;;;;;;;;;;;22.20;52.10;;;;;;5026481;28;20210;-80
2023/05/26 11:06:32;;;;;;;;;;;22.20;52.20;;;;;;5025163;28;19917;-80
2023/05/26 11:09:00;;;;;;;;;;;22.10;52.30;;;;;;5031459;28;19984;-80
2023/05/26 11:11:27;;;;;;;;;;;22.10;52.40;;;;;;5045580;28;19908;-80
2023/05/26 11:13:59;;;;;;;;;;;22.00;52.40;;;;;;5021652;28;20337;-79
2023/05/26 11:16:25;;;;;;;;;;;22.00;52.60;;;;;;5029307;28;20176;-80
2023/05/26 11:18:57;;;;;;;;;;;22.00;52.70;;;;;;5045130;28;20240;-80
2023/05/26 11:21:27;;;;;;;;;;;21.90;52.80;;;;;;5027188;28;20178;-80
2023/05/26 11:23:53;;;;;;;;;;;21.90;52.90;;;;;;5045521;28;19986;-79
2023/05/26 11:26:19;;;;;;;;;;;21.90;53.00;;;;;;5027866;28;19913;-80
2023/05/26 11:28:45;;;;;;;;;;;21.90;53.10;;;;;;5023987;28;19920;-80
2023/05/26 11:31:12;;;;;;;;;;;21.90;53.10;;;;;;5027213;28;20062;-80
2023/05/26 11:33:38;;;;;;;;;;;21.90;53.20;;;;;;5011802;28;19920;-80
2023/05/26 11:36:07;;;;;;;;;;;21.90;53.30;;;;;;5045341;28;19912;-79
2023/05/26 11:38:33;;;;;;;;;;;21.80;53.40;;;;;;5029201;28;20011;-80
2023/05/26 11:41:01;;;;;;;;;;;21.80;53.40;;;;;;5026012;28;19924;-80
2023/05/26 11:43:27;;;;;;;;;;;21.80;53.60;;;;;;5023015;28;19921;-80
2023/05/26 11:45:52;;;;;;;;;;;21.80;53.60;;;;;;5026660;28;20162;-80
2023/05/26 11:48:18;;;;;;;;;;;21.70;53.70;;;;;;5041516;28;20066;-80
2023/05/26 11:50:45;;;;;;;;;;;21.70;53.80;;;;;;5047665;28;19921;-80
2023/05/26 11:53:10;;;;;;;;;;;21.70;53.90;;;;;;5026705;28;20236;-80
2023/05/26 11:55:36;;;;;;;;;;;21.70;53.90;;;;;;5026635;28;19980;-80
2023/05/26 11:58:01;;;;;;;;;;;21.70;53.90;;;;;;5028524;28;19913;-80
2023/05/26 12:00:27;;;;;;;;;;;21.70;54.30;;;;;;5028840;28;20015;-80
2023/05/26 12:02:53;;;;;;;;;;;21.70;54.30;;;;;;5029478;28;19913;-80
2023/05/26 12:05:26;;;;;;;;;;;21.60;54.20;;;;;;5024263;28;19913;-81
2023/05/26 12:08:00;;;;;;;;;;;21.60;54.30;;;;;;5047520;28;20302;-81
2023/05/26 12:10:27;;;;;;;;;;;21.60;54.40;;;;;;5045224;28;20068;-80
2023/05/26 12:12:53;;;;;;;;;;;21.60;54.40;;;;;;5047014;28;19912;-80
2023/05/26 12:15:20;;;;;;;;;;;21.60;54.50;;;;;;5048240;28;20155;-80
2023/05/26 12:17:45;;;;;;;;;;;21.60;54.60;;;;;;5046719;28;20019;-80
2023/05/26 12:20:15;;;;;;;;;;;21.50;54.60;;;;;;5047184;28;20372;-80
2023/05/26 12:22:41;;;;;;;;;;;21.50;54.70;;;;;;5048614;28;19941;-80
2023/05/26 12:25:06;;;;;;;;;;;21.50;54.80;;;;;;5048781;28;19920;-80
2023/05/26 12:27:36;;;;;;;;;;;21.50;55.30;;;;;;5048807;28;20125;-80
2023/05/26 12:30:18;;;;;;;;;;;21.50;54.90;;;;;;5050191;28;19994;-80
2023/05/26 12:32:45;;;;;;;;;;;21.50;55.00;;;;;;5049196;28;19920;-80
2023/05/26 12:35:44;;;;;;;;;;;21.50;55.10;;;;;;5049225;28;19912;-80
2023/05/26 12:38:13;;;;;;;;;;;21.50;55.40;;;;;;5047726;28;19909;-80
2023/05/26 12:40:40;;;;;;;;;;;21.40;55.40;;;;;;5051515;28;19909;-80
2023/05/26 12:43:06;;;;;;;;;;;21.40;55.40;;;;;;5046821;28;20131;-80
2023/05/26 12:45:31;;;;;;;;;;;21.40;55.40;;;;;;5065587;28;19912;-80
2023/05/26 12:47:57;;;;;;;;;;;21.40;55.30;;;;;;5065317;28;19908;-80
2023/05/26 12:50:23;;;;;;;;;;;21.40;55.30;;;;;;5067738;28;19909;-80
2023/05/26 12:52:48;;;;;;;;;;;21.30;55.30;;;;;;5050932;28;20116;-80
2023/05/26 12:55:15;;;;;;;;;;;21.30;55.30;;;;;;5051493;28;19920;-80
2023/05/26 12:57:40;;;;;;;;;;;21.30;55.30;;;;;;5050644;28;19918;-79
2023/05/26 13:00:07;;;;;;;;;;;21.30;55.40;;;;;;5048267;28;20237;-80
2023/05/26 13:02:36;;;;;;;;;;;21.30;55.50;;;;;;5067073;28;19915;-80
2023/05/26 13:05:02;;;;;;;;;;;21.20;55.80;;;;;;5064681;28;19932;-80
2023/05/26 13:07:28;;;;;;;;;;;21.20;55.40;;;;;;5049023;28;19970;-80
2023/05/26 13:09:53;;;;;;;;;;;21.20;55.50;;;;;;5038461;28;19917;-80
2023/05/26 13:12:19;;;;;;;;;;;21.20;55.40;;;;;;5028846;28;19909;-80
2023/05/26 13:14:44;;;;;;;;;;;21.20;55.40;;;;;;5027516;28;19913;-80
2023/05/26 13:17:10;;;;;;;;;;;21.20;55.40;;;;;;5029047;28;19915;-80
2023/05/26 13:19:36;;;;;;;;;;;21.10;55.10;;;;;;5028223;28;19916;-80
2023/05/26 13:22:03;;;;;;;;;;;21.20;55.40;;;;;;5027487;28;20062;-80
2023/05/26 13:24:29;;;;;;;;;;;21.10;55.30;;;;;;5042801;28;19915;-80
2023/05/26 13:26:55;;;;;;;;;;;21.20;55.30;;;;;;5042150;28;19909;-80
2023/05/26 13:29:20;;;;;;;;;;;21.10;55.40;;;;;;5042208;28;20141;-80
2023/05/26 13:31:46;;;;;;;;;;;21.20;55.40;;;;;;5026682;28;19916;-80
2023/05/26 13:34:11;;;;;;;;;;;21.10;55.20;;;;;;5027732;28;20021;-81
2023/05/26 13:36:38;;;;;;;;;;;21.10;55.30;;;;;;5044014;28;19909;-80
2023/05/26 13:39:03;;;;;;;;;;;21.10;55.20;;;;;;5026606;28;20289;-81
2023/05/26 13:41:29;;;;;;;;;;;21.10;55.20;;;;;;5045953;28;19908;-80
2023/05/26 13:43:55;;;;;;;;;;;21.10;54.90;;;;;;5030034;28;19920;-80
2023/05/26 13:46:21;;;;;;;;;;;21.10;55.00;;;;;;5048941;28;19908;-81
2023/05/26 13:48:46;;;;;;;;;;;21.10;55.00;;;;;;5045252;28;20172;-81
2023/05/26 13:51:12;;;;;;;;;;;21.10;54.70;;;;;;5026947;28;20186;-81
2023/05/26 13:53:39;;;;;;;;;;;21.10;54.70;;;;;;5027276;28;19920;-81
2023/05/26 13:56:05;;;;;;;;;;;21.00;54.50;;;;;;5045170;28;20296;-81
2023/05/26 13:58:30;;;;;;;;;;;21.00;54.70;;;;;;5026976;28;20066;-81
2023/05/26 14:00:57;;;;;;;;;;;21.00;54.40;;;;;;5027823;28;19969;-81
2023/05/26 14:03:22;;;;;;;;;;;21.00;54.30;;;;;;5046040;28;19909;-81
2023/05/26 14:05:48;;;;;;;;;;;21.00;54.20;;;;;;5027627;28;20152;-80
2023/05/26 14:08:13;;;;;;;;;;;21.00;54.00;;;;;;5027557;28;19909;-81
2023/05/26 14:10:39;;;;;;;;;;;20.90;54.10;;;;;;5045144;28;20274;-81
2023/05/26 14:13:04;;;;;;;;;;;21.00;53.90;;;;;;5045271;28;19916;-81